createdAt,value
2023-05-21T00:02:34.449Z,102289.00
2023-05-21T00:12:58.097Z,102283.00
2023-05-21T00:23:26.186Z,102283.00
2023-05-21T00:33:48.185Z,102259.00
2023-05-21T00:44:14.126Z,102265.00
2023-05-21T00:54:36.540Z,102261.00
2023-05-21T01:05:00.644Z,102251.00
2023-05-21T01:15:22.843Z,102254.00
2023-05-21T01:25:46.518Z,102261.00
2023-05-21T01:36:15.838Z,102253.00
2023-05-21T01:46:39.502Z,102257.00
2023-05-21T01:57:01.652Z,102250.00
2023-05-21T02:07:33.764Z,102240.00
2023-05-21T02:17:56.449Z,102229.00
2023-05-21T02:28:19.581Z,102233.00
2023-05-21T02:38:43.805Z,102232.00
2023-05-21T02:49:06.689Z,102225.00
2023-05-21T02:59:28.275Z,102206.00
2023-05-21T03:09:51.437Z,102201.00
2023-05-21T03:20:16.554Z,102207.00
2023-05-21T03:30:40.037Z,102198.00
2023-05-21T03:41:22.346Z,102208.00
2023-05-21T03:51:54.055Z,102206.00
2023-05-21T04:02:16.044Z,102191.00
2023-05-21T04:12:39.668Z,102201.00
2023-05-21T04:23:02.997Z,102194.00
2023-05-21T04:33:27.138Z,102188.00
2023-05-21T04:43:48.868Z,102181.00
2023-05-21T04:54:19.227Z,102178.00
2023-05-21T05:04:41.276Z,102187.00
2023-05-21T05:15:08.369Z,102182.00
2023-05-21T05:25:31.281Z,102170.00
2023-05-21T05:35:54.862Z,102175.00
2023-05-21T05:46:16.946Z,102179.00
2023-05-21T05:56:41.373Z,102173.00
2023-05-21T06:07:03.320Z,102166.00
2023-05-21T06:17:26.449Z,102162.00
2023-05-21T06:27:48.777Z,102154.00
2023-05-21T06:38:17.877Z,102144.00
2023-05-21T06:48:39.430Z,102140.00
2023-05-21T06:59:02.526Z,102137.00
2023-05-21T07:09:26.278Z,102119.00
2023-05-21T07:19:49.611Z,102126.00
2023-05-21T07:30:12.852Z,102117.00
2023-05-21T07:40:36.648Z,102095.00
2023-05-21T07:50:59.983Z,102092.00
2023-05-21T08:01:24.005Z,102073.00
2023-05-21T08:11:46.561Z,102054.00
2023-05-21T08:22:10.138Z,102064.00
2023-05-21T08:32:36.692Z,102064.00
2023-05-21T08:42:59.773Z,102047.00
2023-05-21T08:53:31.264Z,102032.00
2023-05-21T09:04:05.033Z,102038.00
2023-05-21T09:14:36.678Z,102017.00
2023-05-21T09:25:09.054Z,102022.00
2023-05-21T09:35:31.788Z,102012.00
2023-05-21T09:45:58.993Z,102006.00
2023-05-21T09:56:26.214Z,102007.00
2023-05-21T10:06:50.301Z,101994.00
2023-05-21T10:17:13.747Z,101985.00
2023-05-21T10:27:38.079Z,101966.00
2023-05-21T10:38:00.871Z,101955.00
2023-05-21T10:48:42.042Z,101941.00
2023-05-21T10:59:29.889Z,101960.00
2023-05-21T11:09:52.878Z,101945.00
2023-05-21T11:20:15.064Z,101955.00
2023-05-21T11:30:40.351Z,101945.00
2023-05-21T11:41:04.281Z,101942.00
2023-05-21T11:51:27.105Z,101924.00
2023-05-21T12:01:50.848Z,101916.00
2023-05-21T12:12:18.333Z,101903.00
2023-05-21T12:22:43.138Z,101905.00
2023-05-21T12:33:08.360Z,101901.00
2023-05-21T12:43:35.273Z,101913.00
2023-05-21T12:53:58.691Z,101887.00
2023-05-21T13:04:21.174Z,101908.00
2023-05-21T13:14:44.208Z,101914.00
2023-05-21T13:25:06.181Z,101871.00
2023-05-21T13:35:30.352Z,101905.00
2023-05-21T13:46:01.933Z,101884.00
2023-05-21T13:56:26.713Z,101880.00
2023-05-21T14:06:48.637Z,101882.00
2023-05-21T14:17:12.690Z,101877.00
2023-05-21T14:27:34.554Z,101870.00
2023-05-21T14:37:58.473Z,101889.00
2023-05-21T14:48:23.038Z,101901.00
2023-05-21T14:58:45.932Z,101891.00
2023-05-21T15:09:07.939Z,101882.00
2023-05-21T15:19:30.928Z,101884.00
2023-05-21T15:29:54.450Z,101878.00
2023-05-21T15:40:23.335Z,101879.00
2023-05-21T15:50:48.196Z,101881.00
2023-05-21T16:01:12.110Z,101886.00
2023-05-21T16:11:36.740Z,101864.00
2023-05-21T16:22:01.570Z,101863.00
2023-05-21T16:32:24.551Z,101857.00
2023-05-21T16:42:47.799Z,101856.00
2023-05-21T16:53:09.928Z,101873.00
2023-05-21T17:03:34.083Z,101884.00
2023-05-21T17:13:56.439Z,101895.00
2023-05-21T17:24:19.836Z,101904.00
2023-05-21T17:34:41.324Z,101906.00
2023-05-21T17:45:04.208Z,101909.00
2023-05-21T17:55:25.875Z,101912.00
2023-05-21T18:05:49.226Z,101935.00
2023-05-21T18:16:10.878Z,101946.00
2023-05-21T18:26:33.746Z,101946.00
2023-05-21T18:36:58.718Z,101950.00
2023-05-21T18:47:23.075Z,101953.00
2023-05-21T18:57:52.138Z,101961.00
2023-05-21T19:08:15.401Z,101971.00
2023-05-21T19:18:38.133Z,101986.00
2023-05-21T19:29:00.971Z,102006.00
2023-05-21T19:39:22.555Z,102007.00
2023-05-21T19:49:45.663Z,102004.00
2023-05-21T20:00:11.114Z,102010.00
2023-05-21T20:10:36.980Z,102011.00
2023-05-21T20:20:58.813Z,102011.00
2023-05-21T20:31:27.310Z,102016.00
2023-05-21T20:41:48.742Z,102019.00
2023-05-21T20:52:12.224Z,102018.00
2023-05-21T21:03:02.204Z,102039.00
2023-05-21T21:13:25.450Z,102026.00
2023-05-21T21:23:46.964Z,102022.00
2023-05-21T21:34:10.343Z,102032.00
2023-05-21T21:44:32.121Z,102044.00
2023-05-21T21:54:57.705Z,102051.00
2023-05-21T22:05:19.604Z,102046.00
2023-05-21T22:15:49.016Z,102055.00
2023-05-21T22:26:10.933Z,102058.00
2023-05-21T22:36:34.531Z,102051.00
2023-05-21T22:47:00.150Z,102053.00
2023-05-21T22:57:23.440Z,102051.00
2023-05-21T23:07:46.973Z,102056.00
2023-05-21T23:18:11.490Z,102054.00
2023-05-21T23:28:33.510Z,102053.00
2023-05-21T23:38:59.187Z,102043.00
2023-05-21T23:49:21.165Z,102048.00
2023-05-21T23:59:44.498Z,102048.00
